This is the latest recevied weather packets stored in our database for station/object KD5VOO. If no packets are shown the sender has not sent any weather packets the latest 10 day(s).
| Time | Temp. | Humidity | Pressure | Rain* | Wind** | Luminosity | Snow |
|---|---|---|---|---|---|---|---|
| 1777689095 | 12.22° C | 79% | 1010.5 hPa | 0 mm | - | 0 W/m² | - |
| 1777688792 | 12.22° C | 79% | 1010.2 hPa | 0 mm | - | 0 W/m² | - |
| 1777687581 | 12.22° C | 79% | 1009.9 hPa | 0 mm | - | 0 W/m² | - |
| 1777673641 | 12.78° C | 79% | 1008.8 hPa | 0 mm | - | 7 W/m² | - |
| 1777672429 | 13.33° C | 79% | 1008.8 hPa | 7.11 mm | - | 11 W/m² | - |
| 1777672124 | 13.33° C | 79% | 1008.8 hPa | 8.89 mm | - | 13 W/m² | - |
| 1777671820 | 13.33° C | 79% | 1010.2 hPa | 5.33 mm | - | 1 W/m² | - |
| 1777671213 | 13.33° C | 79% | 1010.5 hPa | 3.56 mm | - | 1 W/m² | - |
| 1777670605 | 13.33° C | 79% | 1008.8 hPa | 5.33 mm | - | 7 W/m² | - |
| 1777670303 | 12.78° C | 79% | 1008.5 hPa | 7.11 mm | - | 14 W/m² | - |
| 1777669697 | 12.78° C | 79% | 1008.2 hPa | 7.11 mm | - | 9 W/m² | - |
| 1777669394 | 12.78° C | 78% | 1008.2 hPa | 7.11 mm | - | 7 W/m² | - |
| 1777668787 | 12.78° C | 78% | - | 1.78 mm | - | - | - |
| 1777667889 | 13.89° C | 78% | 1010.2 hPa | 18.03 mm | - | 4 W/m² | - |
| 1777667283 | 13.89° C | 78% | 1010.2 hPa | 8.89 mm | - | 1 W/m² | - |
| 1777666980 | 14.44° C | 78% | 1009.9 hPa | 7.11 mm | - | 3 W/m² | - |
| 1777666677 | 14.44° C | 78% | 1009.5 hPa | 7.11 mm | - | 5 W/m² | - |
| 1777666070 | 14.44° C | 78% | 1009.2 hPa | 28.7 mm | - | 5 W/m² | - |
| 1777665465 | 14.44° C | 78% | 1009.9 hPa | 12.7 mm | - | 3 W/m² | - |
| 1777665160 | 14.44° C | 78% | 1009.9 hPa | 10.92 mm | - | 0 W/m² | - |
| 1777664857 | 14.44° C | 78% | 1009.5 hPa | 10.92 mm | - | 2 W/m² | - |
| 1777664249 | 14.44° C | 78% | - | 0 mm | - | - | - |
| 1777663353 | 16.11° C | 77% | 1008.8 hPa | 8.89 mm | - | 5 W/m² | - |
| 1777663050 | 16.11° C | 77% | 1008.8 hPa | 8.89 mm | - | 5 W/m² | - |
| 1777660619 | 16.67° C | 77% | 1008.8 hPa | 7.11 mm | - | 4 W/m² | - |
* Rain latest hour (hover to see other rain measurements)
** Current wind speed in m/s (hover to see current wind gust speed)